Time;durP1;ratioP1;P1;durP2;ratioP2;P2;SDS_P1;SDS_P2;PMS_P1;PMS_P2;Temp;Humidity;BMP_temperature;BMP_pressure;BME280_temperature;BME280_humidity;BME280_pressure;Samples;Min_cycle;Max_cycle;Signal;HPM_P1;HPM_P2
2022/11/13 00:00:06;;;;;;;357.47;19.90;;;8.60;57.60;;;;;;20737;6707;318617;-88
2022/11/13 00:02:41;;;;;;;246.07;16.57;;;8.70;57.70;;;;;;20981;6707;118264;-87
2022/11/13 00:05:17;;;;;;;513.90;20.40;;;8.70;57.60;;;;;;20776;6707;306311;-88
2022/11/13 00:07:52;;;;;;;473.80;18.73;;;8.80;57.90;;;;;;21001;6707;120171;-88
2022/11/13 00:10:29;;;;;;;494.47;18.37;;;8.80;57.70;;;;;;20910;6707;117395;-89
2022/11/13 00:13:05;;;;;;;329.10;15.98;;;8.50;57.90;;;;;;20715;6722;305651;-88
2022/11/13 00:15:40;;;;;;;329.15;16.33;;;8.60;57.70;;;;;;20738;6722;334912;-88
2022/11/13 00:18:17;;;;;;;382.03;15.83;;;8.90;57.20;;;;;;20953;6722;117220;-87
2022/11/13 00:20:58;;;;;;;413.70;15.53;;;8.80;57.00;;;;;;20810;6722;117987;-88
2022/11/13 00:23:28;;;;;;;469.17;17.10;;;8.50;57.50;;;;;;20996;6707;117322;-87
2022/11/13 00:26:07;;;;;;;306.30;15.40;;;8.20;58.00;;;;;;20980;6707;118117;-87
2022/11/13 00:28:43;;;;;;;355.03;14.80;;;8.00;58.60;;;;;;20990;6707;117610;-87
2022/11/13 00:31:18;;;;;;;206.15;13.52;;;7.90;59.00;;;;;;20619;6722;310536;-89
2022/11/13 00:33:54;;;;;;;373.95;16.90;;;8.10;58.50;;;;;;20816;6713;306637;-89
2022/11/13 00:36:30;;;;;;;373.83;17.83;;;8.40;57.30;;;;;;20833;6711;303384;-96
2022/11/13 00:39:05;;;;;;;462.13;19.93;;;8.70;56.60;;;;;;20785;6711;279405;-87
2022/11/13 00:41:41;;;;;;;390.53;17.57;;;8.90;56.60;;;;;;20814;6711;117979;-87
2022/11/13 00:44:16;;;;;;;442.67;20.62;;;8.70;56.60;;;;;;20774;6726;294106;-90
2022/11/13 00:46:52;;;;;;;519.83;22.90;;;8.70;57.10;;;;;;20744;6726;295340;-89
2022/11/13 00:49:34;;;;;;;276.40;17.13;;;8.90;56.80;;;;;;20549;6703;122893;-96
2022/11/13 00:52:07;;;;;;;309.47;16.77;;;8.80;57.00;;;;;;20883;6749;117459;-88
2022/11/13 00:54:42;;;;;;;195.67;13.50;;;8.40;57.70;;;;;;20660;6735;276144;-89
2022/11/13 00:57:18;;;;;;;186.07;12.00;;;8.60;58.20;;;;;;20906;6744;117755;-89
2022/11/13 00:59:53;;;;;;;170.90;10.97;;;8.50;58.00;;;;;;20923;6730;118452;-87
2022/11/13 01:02:29;;;;;;;185.37;10.93;;;8.20;58.30;;;;;;20976;6714;117545;-88
2022/11/13 01:05:05;;;;;;;137.47;9.57;;;8.00;59.00;;;;;;20996;6717;119123;-87
2022/11/13 01:07:44;;;;;;;141.50;10.10;;;7.90;59.50;;;;;;20904;6717;117051;-88
2022/11/13 01:10:16;;;;;;;191.13;12.00;;;7.80;59.90;;;;;;20906;6709;116996;-87
2022/11/13 01:12:52;;;;;;;303.50;14.07;;;7.70;60.10;;;;;;20881;6728;118294;-88
2022/11/13 01:15:28;;;;;;;238.97;12.73;;;7.60;60.20;;;;;;20917;6730;118213;-88
2022/11/13 01:18:04;;;;;;;365.43;14.77;;;7.60;60.40;;;;;;20933;6703;117773;-88
2022/11/13 01:20:40;;;;;;;310.50;14.93;;;7.50;60.60;;;;;;20818;6716;118605;-89
2022/11/13 01:23:16;;;;;;;177.20;11.53;;;7.50;60.70;;;;;;20871;6793;121318;-87
2022/11/13 01:25:51;;;;;;;201.73;14.15;;;7.40;60.90;;;;;;20741;6717;334729;-89
2022/11/13 01:28:27;;;;;;;177.23;12.70;;;7.70;60.30;;;;;;20950;6730;117382;-88
2022/11/13 01:31:03;;;;;;;312.00;14.97;;;7.80;59.80;;;;;;20822;6716;118932;-87
2022/11/13 01:33:38;;;;;;;227.47;12.33;;;7.70;60.10;;;;;;20997;6703;117799;-87
2022/11/13 01:36:15;;;;;;;306.57;14.13;;;7.60;60.20;;;;;;20951;6718;118400;-88
2022/11/13 01:38:51;;;;;;;125.23;13.13;;;7.50;60.50;;;;;;20665;6729;306004;-88
2022/11/13 01:41:26;;;;;;;388.90;17.90;;;7.80;60.10;;;;;;20758;6730;125777;-90
2022/11/13 01:44:02;;;;;;;155.40;10.77;;;7.90;59.80;;;;;;20903;6745;118614;-87
2022/11/13 01:46:37;;;;;;;301.20;15.60;;;7.80;60.00;;;;;;20917;6712;118052;-88
2022/11/13 01:49:29;;;;;;;185.77;14.90;;;7.60;60.40;;;;;;20755;6718;335377;-87
2022/11/13 01:52:15;;;;;;;166.97;12.20;;;7.90;60.10;;;;;;20979;6712;117849;-89
2022/11/13 01:54:54;;;;;;;200.40;13.00;;;8.00;59.90;;;;;;20901;6719;117945;-87
2022/11/13 01:57:32;;;;;;;199.07;11.87;;;7.90;60.30;;;;;;20944;6717;117286;-88
2022/11/13 02:00:05;;;;;;;192.97;13.57;;;7.70;60.50;;;;;;20670;6735;307085;-87
2022/11/13 02:02:42;;;;;;;266.50;15.77;;;8.00;60.10;;;;;;20728;6714;280464;-87
2022/11/13 02:05:18;;;;;;;94.17;11.60;;;8.40;58.70;;;;;;20751;6718;311002;-89
2022/11/13 02:07:54;;;;;;;201.87;13.60;;;8.70;57.70;;;;;;20755;6718;306583;-88
2022/11/13 02:10:30;;;;;;;143.27;11.23;;;8.90;57.10;;;;;;20701;6710;337102;-89
2022/11/13 02:13:05;;;;;;;52.50;8.70;;;9.10;56.80;;;;;;20964;6706;118992;-88
2022/11/13 02:15:41;;;;;;;237.90;13.30;;;8.90;56.90;;;;;;20759;6714;280603;-87
2022/11/13 02:18:16;;;;;;;275.10;16.10;;;8.90;57.20;;;;;;20774;6725;305386;-87
2022/11/13 02:21:05;;;;;;;243.30;13.13;;;9.10;56.30;;;;;;20895;6710;117930;-89
2022/11/13 02:23:53;;;;;;;307.08;16.58;;;8.90;56.40;;;;;;19913;6785;305185;-88
2022/11/13 02:26:29;;;;;;;224.87;13.10;;;8.90;56.40;;;;;;20892;6740;122716;-88
2022/11/13 02:29:04;;;;;;;141.35;12.45;;;8.60;56.50;;;;;;20723;6729;339514;-87
2022/11/13 02:31:40;;;;;;;177.37;13.03;;;8.60;57.10;;;;;;20717;6738;118418;-87
2022/11/13 02:34:16;;;;;;;340.67;17.52;;;8.50;57.30;;;;;;20639;6740;306464;-88
2022/11/13 02:36:52;;;;;;;314.08;17.35;;;8.60;57.30;;;;;;20653;6737;316117;-87
2022/11/13 02:39:28;;;;;;;305.15;17.40;;;8.80;56.90;;;;;;20760;6718;304712;-89
2022/11/13 02:42:06;;;;;;;413.70;18.10;;;9.00;56.60;;;;;;20796;6719;116399;-88
2022/11/13 02:44:39;;;;;;;220.20;12.73;;;8.80;56.70;;;;;;20885;6734;118525;-87
2022/11/13 02:47:14;;;;;;;235.93;13.23;;;8.40;57.40;;;;;;20954;6724;123908;-88
2022/11/13 02:49:50;;;;;;;303.00;14.57;;;8.10;58.20;;;;;;20921;6709;117357;-87
2022/11/13 02:52:25;;;;;;;255.43;15.68;;;7.90;58.90;;;;;;20728;6722;335199;-89
2022/11/13 02:55:01;;;;;;;599.77;20.83;;;8.10;59.00;;;;;;20930;6717;117273;-88
2022/11/13 02:57:37;;;;;;;284.20;14.73;;;8.10;58.70;;;;;;20902;6734;118507;-87
2022/11/13 03:00:12;;;;;;;541.10;22.33;;;7.90;59.10;;;;;;20631;6733;337180;-87
2022/11/13 03:02:57;;;;;;;321.95;17.92;;;8.10;59.10;;;;;;20636;6745;287670;-87
2022/11/13 03:05:23;;;;;;;481.63;21.67;;;8.40;57.90;;;;;;20930;6728;118671;-86
2022/11/13 03:07:59;;;;;;;248.17;14.80;;;8.40;57.70;;;;;;20956;6711;117273;-86
2022/11/13 03:10:35;;;;;;;345.20;14.67;;;8.10;58.30;;;;;;20891;6710;117643;-87
2022/11/13 03:13:10;;;;;;;405.40;16.33;;;7.90;59.00;;;;;;20939;6717;118003;-87
2022/11/13 03:15:47;;;;;;;349.40;17.83;;;7.70;59.50;;;;;;20787;6700;307558;-88
2022/11/13 03:18:23;;;;;;;294.00;16.20;;;8.00;59.10;;;;;;21018;6700;117233;-88
2022/11/13 03:20:58;;;;;;;289.07;14.57;;;8.00;58.90;;;;;;20837;6700;123330;-87
2022/11/13 03:23:34;;;;;;;497.33;18.97;;;7.80;59.20;;;;;;20970;6716;118510;-86
2022/11/13 03:26:09;;;;;;;551.90;22.03;;;7.70;59.70;;;;;;20987;6715;117340;-87
2022/11/13 03:28:45;;;;;;;338.83;16.35;;;7.60;60.00;;;;;;20756;6715;305768;-86
2022/11/13 03:31:21;;;;;;;522.28;19.20;;;7.80;60.00;;;;;;20526;6717;311240;-87
2022/11/13 03:33:56;;;;;;;190.40;11.30;;;8.20;58.40;;;;;;20808;6699;305374;-87
2022/11/13 03:36:32;;;;;;;427.93;16.13;;;8.60;57.00;;;;;;20660;6729;306407;-89
2022/11/13 03:39:07;;;;;;;462.03;16.90;;;8.80;55.90;;;;;;20676;6738;277281;-87
2022/11/13 03:41:43;;;;;;;175.40;12.40;;;8.90;55.10;;;;;;20772;6729;117749;-87
2022/11/13 03:44:18;;;;;;;475.90;17.50;;;8.60;55.30;;;;;;20730;6726;294206;-87
2022/11/13 03:46:56;;;;;;;403.53;16.50;;;8.60;55.70;;;;;;20929;6721;128259;-87
2022/11/13 03:49:32;;;;;;;154.67;10.33;;;8.40;55.90;;;;;;20783;6721;275610;-90
2022/11/13 03:52:08;;;;;;;137.00;10.10;;;8.40;56.30;;;;;;20815;6699;119197;-95
2022/11/13 03:55:03;;;;;;;212.83;10.47;;;8.30;56.60;;;;;;21010;6717;119227;-94
2022/11/13 03:57:39;;;;;;;187.53;10.03;;;8.00;57.40;;;;;;20953;6715;119248;-87
2022/11/13 04:00:15;;;;;;;201.60;10.63;;;7.80;58.20;;;;;;20753;6715;323545;-89
2022/11/13 04:02:50;;;;;;;228.77;10.53;;;7.90;57.60;;;;;;20404;6706;127268;-88
2022/11/13 04:05:26;;;;;;;102.53;8.48;;;8.00;57.50;;;;;;20740;6720;323480;-86
2022/11/13 04:08:01;;;;;;;118.40;8.68;;;8.10;57.40;;;;;;20737;6714;306861;-86
2022/11/13 04:10:37;;;;;;;104.68;8.73;;;8.40;56.70;;;;;;20616;6732;306598;-88
2022/11/13 04:13:13;;;;;;;236.17;11.43;;;8.70;55.90;;;;;;20936;6718;117862;-86
2022/11/13 04:15:48;;;;;;;226.97;11.60;;;8.50;56.00;;;;;;20731;6715;331099;-86
2022/11/13 04:18:24;;;;;;;117.27;8.10;;;8.50;55.50;;;;;;20891;6730;118647;-86
2022/11/13 04:20:59;;;;;;;168.50;10.95;;;8.30;55.50;;;;;;20576;6730;313496;-86
2022/11/13 04:23:35;;;;;;;74.77;7.57;;;8.40;55.90;;;;;;20866;6748;118072;-86
2022/11/13 04:26:11;;;;;;;176.10;9.55;;;8.20;56.10;;;;;;20660;6742;336227;-87
2022/11/13 04:28:46;;;;;;;117.70;7.70;;;8.30;56.30;;;;;;20724;6716;306005;-86
2022/11/13 04:31:22;;;;;;;189.00;9.73;;;8.60;55.90;;;;;;20792;6716;118594;-86
2022/11/13 04:33:57;;;;;;;149.23;9.17;;;8.40;55.90;;;;;;20945;6711;117650;-86
2022/11/13 04:36:33;;;;;;;157.00;8.13;;;8.10;56.60;;;;;;20959;6716;118306;-86
2022/11/13 04:39:08;;;;;;;189.13;10.25;;;7.80;57.10;;;;;;20604;6730;306189;-89
2022/11/13 04:44:39;;;;;;;167.48;10.25;;;8.00;56.70;;;;;;20728;6728;305359;-86
2022/11/13 04:47:15;;;;;;;292.57;15.33;;;8.10;56.60;;;;;;20949;6725;117958;-89
2022/11/13 04:50:03;;;;;;;259.20;12.03;;;8.00;56.50;;;;;;20744;6719;124233;-96
2022/11/13 04:52:36;;;;;;;309.23;12.67;;;7.80;57.10;;;;;;20923;6723;117909;-87
2022/11/13 04:55:13;;;;;;;202.33;12.63;;;7.60;57.60;;;;;;20724;6733;276500;-88
2022/11/13 04:57:54;;;;;;;471.43;20.23;;;7.80;57.80;;;;;;20744;6715;276768;-87
2022/11/13 05:00:25;;;;;;;369.37;18.67;;;8.10;57.00;;;;;;20884;6726;117303;-88
2022/11/13 05:03:00;;;;;;;147.93;11.95;;;8.10;56.90;;;;;;20751;6703;334463;-87
2022/11/13 05:05:36;;;;;;;179.40;11.95;;;8.20;56.90;;;;;;20774;6703;306452;-88
2022/11/13 05:08:14;;;;;;;406.07;18.00;;;8.40;56.70;;;;;;20993;6754;117348;-87
2022/11/13 05:10:50;;;;;;;168.87;13.07;;;8.30;56.70;;;;;;20573;6732;308623;-87
2022/11/13 05:13:26;;;;;;;395.60;17.67;;;8.40;56.80;;;;;;21016;6701;120351;-87
2022/11/13 05:16:02;;;;;;;182.53;12.20;;;8.20;56.80;;;;;;20805;6701;278819;-87
2022/11/13 05:18:38;;;;;;;215.13;11.93;;;8.30;56.90;;;;;;20955;6716;119046;-87
2022/11/13 05:21:14;;;;;;;220.07;12.53;;;8.20;57.00;;;;;;20863;6714;117585;-89
2022/11/13 05:23:50;;;;;;;157.90;11.83;;;8.00;57.60;;;;;;20783;6701;306981;-87
2022/11/13 05:26:27;;;;;;;287.87;13.60;;;8.10;56.70;;;;;;20992;6701;124519;-87
2022/11/13 05:29:03;;;;;;;146.70;11.70;;;8.00;56.50;;;;;;20769;6701;298035;-87
2022/11/13 05:31:38;;;;;;;804.20;24.17;;;8.10;55.60;;;;;;20614;6701;283784;-87
2022/11/13 05:34:24;;;;;;;;;;;;;;;;;;;;;
2022/11/13 05:36:49;;;;;;;381.57;15.73;;;8.20;55.10;;;;;;20726;6716;284056;-87
2022/11/13 05:39:25;;;;;;;227.32;11.55;;;8.30;55.10;;;;;;20774;6714;333879;-87
2022/11/13 05:42:05;;;;;;;202.48;12.25;;;8.50;55.00;;;;;;20786;6697;310524;-87
2022/11/13 05:44:37;;;;;;;302.90;13.03;;;8.70;54.50;;;;;;20950;6697;117228;-92
2022/11/13 05:47:13;;;;;;;368.83;13.50;;;8.50;54.80;;;;;;20953;6716;117457;-87
2022/11/13 05:49:49;;;;;;;110.77;9.77;;;8.10;55.50;;;;;;20815;6697;306214;-91
2022/11/13 05:52:25;;;;;;;243.65;12.52;;;8.10;55.80;;;;;;20801;6698;276148;-87
2022/11/13 05:55:01;;;;;;;323.87;14.63;;;8.40;55.40;;;;;;20594;6696;276341;-85
2022/11/13 05:57:36;;;;;;;293.30;11.57;;;8.60;54.40;;;;;;20933;6711;114722;-90
2022/11/13 06:00:12;;;;;;;360.47;12.10;;;8.40;54.60;;;;;;20842;6735;118418;-88
2022/11/13 06:02:48;;;;;;;235.53;11.57;;;8.00;55.20;;;;;;20852;6733;121053;-84
2022/11/13 06:05:23;;;;;;;111.27;9.43;;;7.70;55.90;;;;;;20940;6718;118580;-86
2022/11/13 06:07:59;;;;;;;88.43;8.20;;;7.50;56.50;;;;;;20963;6707;117708;-88
2022/11/13 06:10:35;;;;;;;293.10;14.02;;;7.30;57.10;;;;;;20642;6721;337756;-88
2022/11/13 06:13:10;;;;;;;304.08;14.23;;;7.50;57.00;;;;;;20714;6719;276687;-87
2022/11/13 06:15:46;;;;;;;107.63;9.70;;;7.80;56.60;;;;;;20858;6738;117338;-88
2022/11/13 06:18:22;;;;;;;345.37;14.52;;;7.80;55.90;;;;;;20707;6730;305689;-87
2022/11/13 06:21:01;;;;;;;289.17;14.15;;;7.80;55.80;;;;;;20546;6749;337985;-87
2022/11/13 06:23:37;;;;;;;180.93;11.53;;;8.10;55.30;;;;;;20753;6709;296576;-87
2022/11/13 06:26:14;;;;;;;203.40;11.90;;;8.30;54.70;;;;;;20808;6710;309390;-87
2022/11/13 06:28:49;;;;;;;370.83;15.07;;;8.50;54.50;;;;;;20993;6710;117412;-86
2022/11/13 06:31:25;;;;;;;241.37;11.87;;;8.30;54.70;;;;;;20889;6711;117830;-86
2022/11/13 06:34:00;;;;;;;277.50;12.80;;;7.90;55.40;;;;;;21019;6711;117326;-86
2022/11/13 06:36:36;;;;;;;171.83;10.00;;;7.60;56.10;;;;;;21027;6711;120834;-87
2022/11/13 06:39:12;;;;;;;82.20;7.77;;;7.40;56.60;;;;;;21009;6710;118128;-87
2022/11/13 06:41:47;;;;;;;193.47;9.70;;;7.20;57.20;;;;;;20841;6711;118481;-87
2022/11/13 06:44:23;;;;;;;93.53;8.47;;;7.10;57.80;;;;;;21016;6711;117140;-87
2022/11/13 06:47:08;;;;;;;318.02;13.70;;;7.00;58.20;;;;;;20745;6711;466034;-87
2022/11/13 06:49:34;;;;;;;72.03;8.83;;;7.30;57.30;;;;;;20795;6711;306368;-87
2022/11/13 06:52:21;;;;;;;;;;;;;;;;;;;;;
2022/11/13 06:54:47;;;;;;;163.27;9.60;;;7.60;55.90;;;;;;20917;6733;123722;-89
2022/11/13 06:57:33;;;;;;;259.50;11.53;;;7.50;56.60;;;;;;20935;6711;118128;-89
2022/11/13 07:00:00;;;;;;;105.50;9.77;;;7.30;57.10;;;;;;20831;6711;313362;-87
2022/11/13 07:02:37;;;;;;;104.33;10.10;;;7.40;56.40;;;;;;20796;6711;277127;-88
2022/11/13 07:05:14;;;;;;;762.53;25.03;;;7.80;56.40;;;;;;20761;6724;277339;-87
2022/11/13 07:07:51;;;;;;;237.33;13.07;;;8.20;55.30;;;;;;20778;6710;305932;-87
2022/11/13 07:10:26;;;;;;;262.87;12.70;;;8.30;54.10;;;;;;20742;6695;311256;-87
2022/11/13 07:13:02;;;;;;;95.03;8.90;;;8.50;54.20;;;;;;21027;6695;119404;-88
2022/11/13 07:15:39;;;;;;;408.87;19.47;;;8.20;54.60;;;;;;20988;6710;116842;-87
2022/11/13 07:18:16;;;;;;;223.70;18.93;;;7.90;55.50;;;;;;20717;6729;277001;-88
2022/11/13 07:20:54;;;;;;;141.00;10.77;;;8.00;55.50;;;;;;20843;6719;118412;-87
2022/11/13 07:23:27;;;;;;;224.10;20.83;;;7.90;55.60;;;;;;20925;6729;122895;-86
2022/11/13 07:26:03;;;;;;;218.90;13.37;;;7.70;56.30;;;;;;20947;6730;116870;-88
2022/11/13 07:28:39;;;;;;;529.07;25.23;;;7.50;57.00;;;;;;20643;6749;307708;-90
2022/11/13 07:31:15;;;;;;;347.80;16.73;;;7.70;56.90;;;;;;20847;6739;116912;-90
2022/11/13 07:34:02;;;;;;;;;;;;;;;;;;;;;
2022/11/13 07:36:30;;;;;;;207.97;12.27;;;7.50;57.10;;;;;;20518;6796;67565;-89
2022/11/13 07:39:03;;;;;;;228.93;13.17;;;7.40;57.60;;;;;;21054;6706;119008;-88
2022/11/13 07:41:52;;;;;;;;;;;;;;;;;;;;;
2022/11/13 07:44:24;;;;;;;49.77;8.50;;;7.50;56.60;;;;;;20984;6782;117053;-88
2022/11/13 07:46:51;;;;;;;189.73;44.40;;;7.50;56.50;;;;;;21040;6711;117756;-88
2022/11/13 07:49:27;;;;;;;129.02;24.63;;;7.30;56.90;;;;;;20852;6711;303955;-87
2022/11/13 07:52:13;;;;;;;190.83;15.10;;;7.50;56.90;;;;;;20676;6821;123270;-89
2022/11/13 07:54:50;;;;;;;316.83;17.20;;;7.50;56.60;;;;;;20540;6748;281758;-90
2022/11/13 07:57:16;;;;;;;189.18;15.20;;;7.70;55.80;;;;;;20710;6741;309987;-90
2022/11/13 07:59:51;;;;;;;157.43;15.67;;;7.90;54.50;;;;;;20912;6736;118435;-89
2022/11/13 08:02:27;;;;;;;214.98;15.02;;;7.80;54.80;;;;;;20713;6748;306314;-90
2022/11/13 08:05:02;;;;;;;226.40;16.07;;;7.80;55.10;;;;;;20992;6715;117419;-90
2022/11/13 08:07:38;;;;;;;187.90;10.83;;;7.70;55.10;;;;;;20965;6717;117755;-90
2022/11/13 08:10:24;;;;;;;;;;;;;;;;;;;;;
2022/11/13 08:13:00;;;;;;;122.30;8.93;;;7.20;56.70;;;;;;20311;6717;117800;-90
2022/11/13 08:18:22;;;;;;;62.50;7.90;;;7.00;57.90;;;;;;20871;6753;67706;-92
2022/11/13 08:20:57;;;;;;;79.80;7.77;;;7.00;58.40;;;;;;20800;6739;120909;-91
2022/11/13 08:23:34;;;;;;;132.37;10.50;;;6.90;58.70;;;;;;20940;6727;117112;-90
2022/11/13 08:26:10;;;;;;;82.93;9.57;;;7.00;59.00;;;;;;20930;6783;117472;-89
2022/11/13 08:28:45;;;;;;;148.80;11.63;;;7.00;59.20;;;;;;20925;6726;117582;-89
2022/11/13 08:31:21;;;;;;;131.87;13.10;;;7.00;59.30;;;;;;20583;6729;340401;-87
2022/11/13 08:33:57;;;;;;;68.63;8.87;;;7.30;58.40;;;;;;20783;6732;117837;-89
2022/11/13 08:36:32;;;;;;;61.37;8.60;;;7.50;58.00;;;;;;20863;6732;118280;-89
2022/11/13 08:39:08;;;;;;;97.25;11.15;;;7.40;58.30;;;;;;20620;6755;337030;-91
2022/11/13 08:41:44;;;;;;;89.23;9.77;;;7.60;58.10;;;;;;20630;6850;117634;-90
2022/11/13 08:44:20;;;;;;;83.00;10.70;;;7.70;57.70;;;;;;20656;6746;308439;-90
2022/11/13 08:46:56;;;;;;;35.27;8.23;;;7.90;56.80;;;;;;20849;6781;117887;-89
2022/11/13 08:49:32;;;;;;;37.00;8.30;;;7.90;56.80;;;;;;20880;6744;117508;-88
2022/11/13 08:52:07;;;;;;;22.23;8.73;;;7.80;57.50;;;;;;20946;6726;117627;-88
2022/11/13 08:54:43;;;;;;;22.07;10.70;;;7.70;58.00;;;;;;20885;6729;123804;-91
2022/11/13 08:57:20;;;;;;;11.15;8.60;;;7.60;58.30;;;;;;20705;6736;339869;-88
2022/11/13 08:59:55;;;;;;;44.70;9.13;;;7.80;57.10;;;;;;20716;6729;279458;-90
2022/11/13 09:02:33;;;;;;;25.20;7.30;;;8.20;55.50;;;;;;21018;6722;118111;-88
2022/11/13 09:05:08;;;;;;;63.97;8.17;;;8.20;55.50;;;;;;20993;6709;117937;-88
2022/11/13 09:07:43;;;;;;;36.70;9.77;;;8.10;56.20;;;;;;20716;6724;293368;-93
2022/11/13 09:10:20;;;;;;;78.03;9.87;;;8.20;55.70;;;;;;20611;6740;316283;-89
2022/11/13 09:12:56;;;;;;;47.57;8.50;;;8.60;54.70;;;;;;20825;6784;117150;-89
2022/11/13 09:15:31;;;;;;;68.27;8.97;;;8.50;54.60;;;;;;20912;6772;115997;-89
2022/11/13 09:18:07;;;;;;;12.60;10.33;;;8.20;55.20;;;;;;20781;6710;321502;-89
2022/11/13 09:20:43;;;;;;;71.27;9.10;;;8.40;55.60;;;;;;20900;6705;117748;-91
2022/11/13 09:23:27;;;;;;;14.00;7.53;;;8.40;55.90;;;;;;20779;6764;338919;-93
2022/11/13 09:25:58;;;;;;;16.60;7.37;;;8.60;55.00;;;;;;20982;6721;119505;-95
2022/11/13 09:28:30;;;;;;;8.85;8.35;;;8.60;54.80;;;;;;20749;6721;322979;-91
2022/11/13 09:31:14;;;;;;;29.97;8.80;;;8.70;54.10;;;;;;20876;6704;118043;-92
2022/11/13 09:33:41;;;;;;;8.23;7.73;;;8.80;54.60;;;;;;20875;6793;118011;-90
2022/11/13 09:36:17;;;;;;;38.78;10.25;;;8.60;55.30;;;;;;20699;6734;293115;-90
2022/11/13 09:38:53;;;;;;;12.88;10.10;;;8.80;54.90;;;;;;20717;6707;305521;-91
2022/11/13 09:41:29;;;;;;;10.77;10.07;;;9.20;53.90;;;;;;20534;6733;338191;-91
2022/11/13 09:44:05;;;;;;;10.32;9.73;;;9.50;53.30;;;;;;20746;6713;305273;-92
2022/11/13 09:46:49;;;;;;;9.97;9.37;;;9.80;52.70;;;;;;20824;6742;120905;-90
2022/11/13 09:49:28;;;;;;;8.17;7.67;;;9.60;53.10;;;;;;20876;6738;116847;-91
2022/11/13 09:52:04;;;;;;;13.02;12.15;;;9.30;54.10;;;;;;20674;6734;341252;-88
2022/11/13 09:54:39;;;;;;;9.93;9.23;;;9.40;53.20;;;;;;20974;6715;118203;-89
2022/11/13 09:57:15;;;;;;;11.05;10.35;;;9.40;53.40;;;;;;20727;6724;306120;-87
2022/11/13 10:00:00;;;;;;;9.10;8.40;;;9.50;53.20;;;;;;20243;6779;119564;-90
2022/11/13 10:02:45;;;;;;;8.70;8.10;;;9.50;53.60;;;;;;20995;6727;112656;-93
2022/11/13 10:05:27;;;;;;;8.47;7.87;;;9.30;54.20;;;;;;20992;6722;116841;-94
2022/11/13 10:08:06;;;;;;;9.82;9.23;;;9.20;54.70;;;;;;20745;6722;307743;-94
2022/11/13 10:10:48;;;;;;;10.00;9.40;;;9.40;54.10;;;;;;20544;6735;338141;-86
2022/11/13 10:13:26;;;;;;;8.87;8.27;;;9.70;53.40;;;;;;20897;6742;117160;-87
2022/11/13 10:16:05;;;;;;;9.57;8.98;;;9.60;53.50;;;;;;20670;6737;338373;-88
2022/11/13 10:18:41;;;;;;;9.07;8.40;;;9.80;53.50;;;;;;20831;6734;119935;-85
2022/11/13 10:21:32;;;;;;;10.45;9.70;;;9.70;53.50;;;;;;20529;6739;278624;-85
2022/11/13 10:24:15;;;;;;;10.70;8.83;;;9.70;52.30;;;;;;20956;6723;117825;-86
2022/11/13 10:26:50;;;;;;;9.20;8.50;;;9.60;52.70;;;;;;20919;6700;122685;-86
2022/11/13 10:29:26;;;;;;;10.70;10.10;;;9.30;53.50;;;;;;20755;6715;305191;-88
2022/11/13 10:32:25;;;;;;;10.85;10.15;;;9.40;54.30;;;;;;20706;6730;306780;-85
2022/11/13 10:35:03;;;;;;;10.47;9.70;;;9.80;54.40;;;;;;20892;6736;117689;-90
2022/11/13 10:37:49;;;;;;;10.57;9.87;;;9.80;54.50;;;;;;20745;6723;293150;-89
2022/11/13 10:40:28;;;;;;;9.63;9.00;;;9.90;54.00;;;;;;20794;6740;118628;-90
2022/11/13 10:43:03;;;;;;;9.13;8.53;;;9.90;54.20;;;;;;20839;6744;118144;-90
2022/11/13 10:45:39;;;;;;;9.30;8.63;;;9.70;54.70;;;;;;20775;6801;122768;-86
2022/11/13 10:48:18;;;;;;;10.10;9.40;;;9.60;55.10;;;;;;20886;6738;116961;-85
2022/11/13 10:50:57;;;;;;;11.30;10.50;;;9.50;55.40;;;;;;20576;6734;279424;-87
2022/11/13 10:53:39;;;;;;;11.65;10.95;;;9.70;54.50;;;;;;20738;6721;308683;-89
2022/11/13 10:56:30;;;;;;;12.07;11.17;;;10.10;52.60;;;;;;20706;6731;279147;-87
2022/11/13 10:59:12;;;;;;;10.00;9.30;;;10.40;53.10;;;;;;20850;6743;122583;-89
2022/11/13 11:01:49;;;;;;;10.13;9.53;;;10.30;52.70;;;;;;20749;6733;117684;-87
2022/11/13 11:04:35;;;;;;;9.60;9.00;;;10.10;53.40;;;;;;20995;6709;118332;-89
2022/11/13 11:07:12;;;;;;;8.43;7.83;;;9.90;55.00;;;;;;20935;6721;119272;-90
2022/11/13 11:09:48;;;;;;;9.20;8.60;;;9.80;55.20;;;;;;20801;6782;117738;-93
2022/11/13 11:12:23;;;;;;;10.88;10.23;;;9.70;55.60;;;;;;20636;6789;337292;-88
2022/11/13 11:15:02;;;;;;;8.93;8.30;;;9.90;54.80;;;;;;20854;6790;121383;-87
2022/11/13 11:17:41;;;;;;;11.93;11.23;;;9.80;54.40;;;;;;20748;6719;306167;-90
2022/11/13 11:20:36;;;;;;;11.67;10.97;;;10.00;53.10;;;;;;20705;6719;338023;-91
2022/11/13 11:23:46;;;;;;;11.98;11.27;;;10.20;52.40;;;;;;20628;6744;307728;-92
2022/11/13 11:26:21;;;;;;;10.23;9.53;;;10.50;52.10;;;;;;20928;6732;117630;-90
2022/11/13 11:29:13;;;;;;;10.03;9.13;;;10.20;52.40;;;;;;20937;6721;120763;-92
2022/11/13 11:32:19;;;;;;;11.37;10.70;;;9.90;54.10;;;;;;20720;6744;305601;-94
2022/11/13 11:35:44;;;;;;;;;;;;;;;;;;;;;
2022/11/13 11:37:52;;;;;;;11.32;10.63;;;9.90;54.60;;;;;;20535;6769;304672;-92
2022/11/13 11:40:41;;;;;;;11.17;10.37;;;10.10;53.90;;;;;;20859;6730;119021;-89
2022/11/13 11:43:17;;;;;;;10.23;9.37;;;10.00;53.70;;;;;;20982;6710;117509;-88
2022/11/13 11:45:55;;;;;;;9.90;9.30;;;9.80;55.10;;;;;;20938;6726;116946;-89
2022/11/13 11:48:31;;;;;;;10.63;9.93;;;9.60;55.60;;;;;;20980;6724;120121;-89
2022/11/13 11:51:20;;;;;;;11.60;10.80;;;9.50;56.00;;;;;;20633;6710;307015;-90
2022/11/13 11:54:08;;;;;;;11.97;11.27;;;9.80;55.90;;;;;;20722;6767;307640;-88
2022/11/13 11:56:47;;;;;;;10.73;10.03;;;10.30;53.90;;;;;;20903;6729;118940;-87
2022/11/13 11:59:50;;;;;;;12.88;12.07;;;10.30;53.90;;;;;;20773;6760;305124;-88
2022/11/13 12:02:41;;;;;;;12.35;11.55;;;10.50;53.90;;;;;;19626;7080;313705;-88
2022/11/13 12:05:17;;;;;;;10.60;9.90;;;10.80;52.80;;;;;;19831;7086;119148;-90
2022/11/13 12:08:15;;;;;;;11.40;10.70;;;10.80;53.00;;;;;;20143;6781;305380;-88
2022/11/13 12:11:13;;;;;;;10.23;9.53;;;10.80;52.60;;;;;;20820;6711;118363;-91
2022/11/13 12:14:16;;;;;;;12.70;11.80;;;10.70;53.00;;;;;;20770;6711;305969;-88
2022/11/13 12:17:11;;;;;;;11.80;11.00;;;10.90;52.60;;;;;;20519;6788;119375;-90
2022/11/13 12:20:03;;;;;;;13.32;12.45;;;10.80;53.00;;;;;;20674;6746;307083;-90
2022/11/13 12:23:12;;;;;;;14.05;13.05;;;11.00;52.60;;;;;;20692;6736;304630;-89
2022/11/13 12:25:54;;;;;;;12.53;11.60;;;11.30;51.90;;;;;;19842;7097;120471;-91
2022/11/13 12:28:49;;;;;;;13.10;12.00;;;11.20;52.30;;;;;;20494;6773;68637;-89
2022/11/13 12:31:38;;;;;;;14.15;13.18;;;11.00;52.90;;;;;;20599;6707;338161;-89
2022/11/13 12:34:41;;;;;;;11.90;11.00;;;11.10;53.20;;;;;;20964;6734;117855;-88
2022/11/13 12:37:20;;;;;;;14.00;12.67;;;11.00;53.30;;;;;;19917;7060;126257;-85
2022/11/13 12:39:57;;;;;;;13.27;12.17;;;10.80;53.70;;;;;;19856;7062;119185;-86
2022/11/13 12:42:54;;;;;;;12.20;11.20;;;10.70;54.00;;;;;;20217;6782;122076;-87
2022/11/13 12:45:35;;;;;;;12.67;11.63;;;10.50;54.20;;;;;;20921;6732;118271;-88
2022/11/13 12:48:18;;;;;;;12.87;11.77;;;10.40;54.60;;;;;;20921;6711;116642;-91
2022/11/13 12:54:16;;;;;;;11.53;10.53;;;10.40;55.20;;;;;;21001;6716;123657;-95
2022/11/13 12:56:36;;;;;;;12.80;11.77;;;10.30;55.40;;;;;;20972;6717;122254;-89
2022/11/13 12:59:21;;;;;;;14.15;13.15;;;10.30;55.70;;;;;;20705;6751;300545;-88
2022/11/13 13:01:51;;;;;;;12.93;12.00;;;10.60;55.20;;;;;;20793;6779;117806;-93
2022/11/13 13:04:50;;;;;;;13.97;12.87;;;10.80;55.00;;;;;;20819;6755;289344;-88
2022/11/13 13:08:18;;;;;;;;;;;;;;;;;;;;;
2022/11/13 13:11:24;;;;;;;12.40;11.40;;;11.10;54.10;;;;;;20950;6714;119439;-93
2022/11/13 13:14:06;;;;;;;12.13;11.23;;;10.90;54.50;;;;;;20966;6735;117681;-90
2022/11/13 13:16:51;;;;;;;11.67;10.77;;;10.80;54.90;;;;;;21033;6773;116334;-89
2022/11/13 13:19:30;;;;;;;12.07;11.17;;;10.70;55.20;;;;;;21015;6715;117647;-90
2022/11/13 13:22:12;;;;;;;14.57;13.53;;;10.60;55.40;;;;;;20738;6735;305655;-91
2022/11/13 13:24:48;;;;;;;12.00;11.10;;;10.90;54.70;;;;;;20804;6727;118346;-90
2022/11/13 13:27:25;;;;;;;10.97;10.20;;;11.00;54.50;;;;;;20990;6723;117538;-93
2022/11/13 13:30:01;;;;;;;13.20;12.30;;;11.00;54.80;;;;;;20642;6790;306517;-90
2022/11/13 13:32:57;;;;;;;;;;;;;;;;;;;;;
2022/11/13 13:35:30;;;;;;;12.68;11.88;;;11.60;53.30;;;;;;19618;7098;332423;-93
2022/11/13 13:38:30;;;;;;;12.70;11.80;;;12.00;52.30;;;;;;18582;7116;328637;-93